Aviation Digital Data Service (ADDS)

Output produced by METARs form (2258 UTC 30 November 2022)
found at http://aviationweather.gov/metar/data/
 
KGUP 301737Z 3018/0118 VRB06KT P6SM SCT200 
     FM301900 23009KT P6SM BKN200 
     FM010200 VRB06KT P6SM SCT200 
     FM011700 22011KT P6SM SCT250